sensor_id;sensor_type;location;lat;lon;timestamp;P1;durP1;ratioP1;P2;durP2;ratioP2
54460;SDS011;69977;49.414;11.010;2023-07-08T00:01:15;5.03;;;4.53;;
54460;SDS011;69977;49.414;11.010;2023-07-08T00:03:41;5.30;;;4.07;;
54460;SDS011;69977;49.414;11.010;2023-07-08T00:06:11;5.03;;;4.27;;
54460;SDS011;69977;49.414;11.010;2023-07-08T00:08:39;5.50;;;4.67;;
54460;SDS011;69977;49.414;11.010;2023-07-08T00:11:12;5.80;;;4.50;;
54460;SDS011;69977;49.414;11.010;2023-07-08T00:13:38;5.30;;;4.67;;
54460;SDS011;69977;49.414;11.010;2023-07-08T00:16:07;6.47;;;4.47;;
54460;SDS011;69977;49.414;11.010;2023-07-08T00:18:34;5.57;;;4.87;;
54460;SDS011;69977;49.414;11.010;2023-07-08T00:21:00;6.10;;;4.70;;
54460;SDS011;69977;49.414;11.010;2023-07-08T00:23:26;5.10;;;4.60;;
54460;SDS011;69977;49.414;11.010;2023-07-08T00:25:52;5.40;;;4.90;;
54460;SDS011;69977;49.414;11.010;2023-07-08T00:28:20;4.80;;;4.40;;
54460;SDS011;69977;49.414;11.010;2023-07-08T00:30:49;5.57;;;4.57;;
54460;SDS011;69977;49.414;11.010;2023-07-08T00:33:15;7.57;;;4.77;;
54460;SDS011;69977;49.414;11.010;2023-07-08T00:35:42;4.83;;;4.00;;
54460;SDS011;69977;49.414;11.010;2023-07-08T00:38:23;6.43;;;5.00;;
54460;SDS011;69977;49.414;11.010;2023-07-08T00:43:22;5.33;;;4.90;;
54460;SDS011;69977;49.414;11.010;2023-07-08T00:45:49;5.23;;;4.70;;
54460;SDS011;69977;49.414;11.010;2023-07-08T00:48:22;4.87;;;4.47;;
54460;SDS011;69977;49.414;11.010;2023-07-08T00:50:49;5.20;;;4.70;;
54460;SDS011;69977;49.414;11.010;2023-07-08T00:55:50;6.20;;;4.60;;
54460;SDS011;69977;49.414;11.010;2023-07-08T00:58:17;4.97;;;4.47;;
54460;SDS011;69977;49.414;11.010;2023-07-08T01:00:44;4.67;;;4.17;;
54460;SDS011;69977;49.414;11.010;2023-07-08T01:03:11;5.20;;;4.63;;
54460;SDS011;69977;49.414;11.010;2023-07-08T01:05:38;6.37;;;4.10;;
54460;SDS011;69977;49.414;11.010;2023-07-08T01:08:04;5.40;;;4.90;;
54460;SDS011;69977;49.414;11.010;2023-07-08T01:10:48;7.57;;;4.63;;
54460;SDS011;69977;49.414;11.010;2023-07-08T01:13:15;4.83;;;4.43;;
54460;SDS011;69977;49.414;11.010;2023-07-08T01:15:42;5.47;;;4.90;;
54460;SDS011;69977;49.414;11.010;2023-07-08T01:18:09;5.30;;;4.53;;
54460;SDS011;69977;49.414;11.010;2023-07-08T01:20:37;6.10;;;4.83;;
54460;SDS011;69977;49.414;11.010;2023-07-08T01:23:05;5.30;;;4.80;;
54460;SDS011;69977;49.414;11.010;2023-07-08T01:25:31;5.40;;;4.77;;
54460;SDS011;69977;49.414;11.010;2023-07-08T01:27:58;4.80;;;4.40;;
54460;SDS011;69977;49.414;11.010;2023-07-08T01:30:26;5.80;;;5.07;;
54460;SDS011;69977;49.414;11.010;2023-07-08T01:32:55;5.67;;;4.73;;
54460;SDS011;69977;49.414;11.010;2023-07-08T01:35:21;6.00;;;4.90;;
54460;SDS011;69977;49.414;11.010;2023-07-08T01:37:49;7.77;;;5.07;;
54460;SDS011;69977;49.414;11.010;2023-07-08T01:42:45;6.97;;;5.07;;
54460;SDS011;69977;49.414;11.010;2023-07-08T01:45:15;6.27;;;5.23;;
54460;SDS011;69977;49.414;11.010;2023-07-08T01:47:42;7.80;;;5.43;;
54460;SDS011;69977;49.414;11.010;2023-07-08T01:50:10;6.53;;;5.13;;
54460;SDS011;69977;49.414;11.010;2023-07-08T01:52:37;7.20;;;5.87;;
54460;SDS011;69977;49.414;11.010;2023-07-08T01:55:04;10.73;;;5.00;;
54460;SDS011;69977;49.414;11.010;2023-07-08T01:57:30;8.23;;;4.70;;
54460;SDS011;69977;49.414;11.010;2023-07-08T01:59:56;8.20;;;4.97;;
54460;SDS011;69977;49.414;11.010;2023-07-08T02:02:23;5.80;;;5.07;;
54460;SDS011;69977;49.414;11.010;2023-07-08T02:04:49;7.27;;;5.27;;
54460;SDS011;69977;49.414;11.010;2023-07-08T02:07:15;7.13;;;5.17;;
54460;SDS011;69977;49.414;11.010;2023-07-08T02:09:42;5.27;;;4.80;;
54460;SDS011;69977;49.414;11.010;2023-07-08T02:12:08;6.33;;;5.47;;
54460;SDS011;69977;49.414;11.010;2023-07-08T02:14:34;6.17;;;5.67;;
54460;SDS011;69977;49.414;11.010;2023-07-08T02:17:00;5.40;;;4.83;;
54460;SDS011;69977;49.414;11.010;2023-07-08T02:19:30;5.97;;;5.37;;
54460;SDS011;69977;49.414;11.010;2023-07-08T02:21:56;6.10;;;5.50;;
54460;SDS011;69977;49.414;11.010;2023-07-08T02:24:22;5.47;;;5.03;;
54460;SDS011;69977;49.414;11.010;2023-07-08T02:26:49;6.10;;;5.30;;
54460;SDS011;69977;49.414;11.010;2023-07-08T02:29:15;5.67;;;5.20;;
54460;SDS011;69977;49.414;11.010;2023-07-08T02:31:41;6.00;;;5.23;;
54460;SDS011;69977;49.414;11.010;2023-07-08T02:34:07;6.20;;;5.50;;
54460;SDS011;69977;49.414;11.010;2023-07-08T02:36:33;6.70;;;5.80;;
54460;SDS011;69977;49.414;11.010;2023-07-08T02:39:00;6.47;;;5.93;;
54460;SDS011;69977;49.414;11.010;2023-07-08T02:41:26;6.73;;;5.73;;
54460;SDS011;69977;49.414;11.010;2023-07-08T02:43:52;6.37;;;5.77;;
54460;SDS011;69977;49.414;11.010;2023-07-08T02:46:18;6.57;;;5.97;;
54460;SDS011;69977;49.414;11.010;2023-07-08T02:48:45;6.57;;;5.47;;
54460;SDS011;69977;49.414;11.010;2023-07-08T02:51:11;6.50;;;5.90;;
54460;SDS011;69977;49.414;11.010;2023-07-08T02:53:37;7.47;;;6.00;;
54460;SDS011;69977;49.414;11.010;2023-07-08T02:56:03;6.23;;;5.63;;
54460;SDS011;69977;49.414;11.010;2023-07-08T02:58:29;6.63;;;5.97;;
54460;SDS011;69977;49.414;11.010;2023-07-08T03:00:56;5.83;;;5.33;;
54460;SDS011;69977;49.414;11.010;2023-07-08T03:03:26;8.90;;;5.20;;
54460;SDS011;69977;49.414;11.010;2023-07-08T03:05:56;6.63;;;5.70;;
54460;SDS011;69977;49.414;11.010;2023-07-08T03:08:24;7.57;;;5.70;;
54460;SDS011;69977;49.414;11.010;2023-07-08T03:10:55;8.00;;;5.30;;
54460;SDS011;69977;49.414;11.010;2023-07-08T03:13:21;7.30;;;6.17;;
54460;SDS011;69977;49.414;11.010;2023-07-08T03:15:48;6.60;;;5.90;;
54460;SDS011;69977;49.414;11.010;2023-07-08T03:18:14;9.30;;;6.07;;
54460;SDS011;69977;49.414;11.010;2023-07-08T03:20:40;6.73;;;6.07;;
54460;SDS011;69977;49.414;11.010;2023-07-08T03:23:11;5.83;;;5.27;;
54460;SDS011;69977;49.414;11.010;2023-07-08T03:25:37;7.37;;;6.67;;
54460;SDS011;69977;49.414;11.010;2023-07-08T03:28:04;6.43;;;5.83;;
54460;SDS011;69977;49.414;11.010;2023-07-08T03:30:41;6.60;;;5.87;;
54460;SDS011;69977;49.414;11.010;2023-07-08T03:33:08;7.07;;;5.73;;
54460;SDS011;69977;49.414;11.010;2023-07-08T03:35:34;6.23;;;5.63;;
54460;SDS011;69977;49.414;11.010;2023-07-08T03:38:01;6.43;;;5.80;;
54460;SDS011;69977;49.414;11.010;2023-07-08T03:40:28;6.73;;;6.13;;
54460;SDS011;69977;49.414;11.010;2023-07-08T03:42:54;6.53;;;5.73;;
54460;SDS011;69977;49.414;11.010;2023-07-08T03:45:21;8.10;;;6.13;;
54460;SDS011;69977;49.414;11.010;2023-07-08T03:47:47;8.30;;;5.80;;
54460;SDS011;69977;49.414;11.010;2023-07-08T03:50:18;7.27;;;5.90;;
54460;SDS011;69977;49.414;11.010;2023-07-08T03:52:45;6.23;;;5.63;;
54460;SDS011;69977;49.414;11.010;2023-07-08T03:55:12;6.47;;;5.50;;
54460;SDS011;69977;49.414;11.010;2023-07-08T03:57:39;6.43;;;5.83;;
54460;SDS011;69977;49.414;11.010;2023-07-08T04:00:05;6.60;;;5.97;;
54460;SDS011;69977;49.414;11.010;2023-07-08T04:02:40;6.43;;;5.80;;
54460;SDS011;69977;49.414;11.010;2023-07-08T04:05:12;6.90;;;6.23;;
54460;SDS011;69977;49.414;11.010;2023-07-08T04:07:39;9.23;;;5.70;;
54460;SDS011;69977;49.414;11.010;2023-07-08T04:10:06;6.03;;;5.53;;
54460;SDS011;69977;49.414;11.010;2023-07-08T04:12:32;6.33;;;5.70;;
54460;SDS011;69977;49.414;11.010;2023-07-08T04:14:58;6.50;;;5.90;;
54460;SDS011;69977;49.414;11.010;2023-07-08T04:17:24;6.57;;;5.73;;
54460;SDS011;69977;49.414;11.010;2023-07-08T04:19:51;6.13;;;5.63;;
54460;SDS011;69977;49.414;11.010;2023-07-08T04:22:17;6.13;;;5.27;;
54460;SDS011;69977;49.414;11.010;2023-07-08T04:24:43;6.23;;;5.73;;
54460;SDS011;69977;49.414;11.010;2023-07-08T04:27:12;6.63;;;5.63;;
54460;SDS011;69977;49.414;11.010;2023-07-08T04:29:39;6.53;;;5.90;;
54460;SDS011;69977;49.414;11.010;2023-07-08T04:32:05;6.70;;;5.17;;
54460;SDS011;69977;49.414;11.010;2023-07-08T04:34:32;6.73;;;6.03;;
54460;SDS011;69977;49.414;11.010;2023-07-08T04:36:58;6.97;;;5.47;;
54460;SDS011;69977;49.414;11.010;2023-07-08T04:39:24;5.50;;;5.03;;
54460;SDS011;69977;49.414;11.010;2023-07-08T04:41:51;6.50;;;5.90;;
54460;SDS011;69977;49.414;11.010;2023-07-08T04:44:17;5.90;;;5.30;;
54460;SDS011;69977;49.414;11.010;2023-07-08T04:46:48;6.17;;;5.57;;
54460;SDS011;69977;49.414;11.010;2023-07-08T04:49:16;5.90;;;5.37;;
54460;SDS011;69977;49.414;11.010;2023-07-08T04:51:42;6.60;;;5.97;;
54460;SDS011;69977;49.414;11.010;2023-07-08T04:54:09;5.97;;;5.47;;
54460;SDS011;69977;49.414;11.010;2023-07-08T04:56:37;6.00;;;5.20;;
54460;SDS011;69977;49.414;11.010;2023-07-08T04:59:03;6.13;;;5.53;;
54460;SDS011;69977;49.414;11.010;2023-07-08T05:01:30;6.00;;;5.47;;
54460;SDS011;69977;49.414;11.010;2023-07-08T05:03:56;6.53;;;5.67;;
54460;SDS011;69977;49.414;11.010;2023-07-08T05:06:22;5.57;;;5.17;;
54460;SDS011;69977;49.414;11.010;2023-07-08T05:08:48;5.93;;;5.43;;
54460;SDS011;69977;49.414;11.010;2023-07-08T05:11:15;7.90;;;5.80;;
54460;SDS011;69977;49.414;11.010;2023-07-08T05:13:41;6.10;;;5.50;;
54460;SDS011;69977;49.414;11.010;2023-07-08T05:16:07;6.17;;;5.57;;
54460;SDS011;69977;49.414;11.010;2023-07-08T05:18:33;6.40;;;5.63;;
54460;SDS011;69977;49.414;11.010;2023-07-08T05:20:59;5.90;;;5.30;;
54460;SDS011;69977;49.414;11.010;2023-07-08T05:23:26;6.50;;;5.90;;
54460;SDS011;69977;49.414;11.010;2023-07-08T05:25:52;6.27;;;5.67;;
54460;SDS011;69977;49.414;11.010;2023-07-08T05:28:19;6.00;;;5.40;;
54460;SDS011;69977;49.414;11.010;2023-07-08T05:30:52;6.33;;;5.73;;
54460;SDS011;69977;49.414;11.010;2023-07-08T05:33:18;6.10;;;5.40;;
54460;SDS011;69977;49.414;11.010;2023-07-08T05:35:45;6.20;;;5.60;;
54460;SDS011;69977;49.414;11.010;2023-07-08T05:38:11;6.27;;;5.37;;
54460;SDS011;69977;49.414;11.010;2023-07-08T05:40:37;5.83;;;5.33;;
54460;SDS011;69977;49.414;11.010;2023-07-08T05:43:03;5.63;;;5.13;;
54460;SDS011;69977;49.414;11.010;2023-07-08T05:45:30;4.93;;;4.50;;
54460;SDS011;69977;49.414;11.010;2023-07-08T05:47:56;6.93;;;5.67;;
54460;SDS011;69977;49.414;11.010;2023-07-08T05:50:22;7.80;;;5.70;;
54460;SDS011;69977;49.414;11.010;2023-07-08T05:52:48;6.87;;;5.30;;
54460;SDS011;69977;49.414;11.010;2023-07-08T05:55:14;5.73;;;5.20;;
54460;SDS011;69977;49.414;11.010;2023-07-08T05:57:41;7.20;;;5.87;;
54460;SDS011;69977;49.414;11.010;2023-07-08T06:00:07;5.47;;;4.97;;
54460;SDS011;69977;49.414;11.010;2023-07-08T06:02:40;5.63;;;5.10;;
54460;SDS011;69977;49.414;11.010;2023-07-08T06:05:07;7.20;;;5.43;;
54460;SDS011;69977;49.414;11.010;2023-07-08T06:07:33;6.20;;;5.60;;
54460;SDS011;69977;49.414;11.010;2023-07-08T06:09:59;6.10;;;5.03;;
54460;SDS011;69977;49.414;11.010;2023-07-08T06:12:25;5.03;;;4.53;;
54460;SDS011;69977;49.414;11.010;2023-07-08T06:14:52;5.60;;;4.80;;
54460;SDS011;69977;49.414;11.010;2023-07-08T06:17:18;4.93;;;4.47;;
54460;SDS011;69977;49.414;11.010;2023-07-08T06:19:44;10.97;;;4.47;;
54460;SDS011;69977;49.414;11.010;2023-07-08T06:22:10;5.10;;;4.20;;
54460;SDS011;69977;49.414;11.010;2023-07-08T06:24:36;5.60;;;4.30;;
54460;SDS011;69977;49.414;11.010;2023-07-08T06:27:03;6.33;;;4.17;;
54460;SDS011;69977;49.414;11.010;2023-07-08T06:29:29;6.40;;;4.90;;
54460;SDS011;69977;49.414;11.010;2023-07-08T06:31:55;4.30;;;3.97;;
54460;SDS011;69977;49.414;11.010;2023-07-08T06:34:22;5.97;;;4.90;;
54460;SDS011;69977;49.414;11.010;2023-07-08T06:36:49;4.70;;;4.27;;
54460;SDS011;69977;49.414;11.010;2023-07-08T06:39:16;5.33;;;4.53;;
54460;SDS011;69977;49.414;11.010;2023-07-08T06:41:42;4.47;;;4.07;;
54460;SDS011;69977;49.414;11.010;2023-07-08T06:44:09;5.00;;;4.50;;
54460;SDS011;69977;49.414;11.010;2023-07-08T06:46:35;4.73;;;4.23;;
54460;SDS011;69977;49.414;11.010;2023-07-08T06:49:01;5.07;;;4.53;;
54460;SDS011;69977;49.414;11.010;2023-07-08T06:51:27;4.93;;;4.33;;
54460;SDS011;69977;49.414;11.010;2023-07-08T06:53:54;4.90;;;4.10;;
54460;SDS011;69977;49.414;11.010;2023-07-08T06:56:20;5.03;;;4.57;;
54460;SDS011;69977;49.414;11.010;2023-07-08T06:58:46;4.87;;;4.37;;
54460;SDS011;69977;49.414;11.010;2023-07-08T07:01:13;5.30;;;4.70;;
54460;SDS011;69977;49.414;11.010;2023-07-08T07:03:40;5.17;;;4.20;;
54460;SDS011;69977;49.414;11.010;2023-07-08T07:06:06;7.07;;;4.43;;
54460;SDS011;69977;49.414;11.010;2023-07-08T07:08:33;5.13;;;4.10;;
54460;SDS011;69977;49.414;11.010;2023-07-08T07:10:59;4.50;;;4.10;;
54460;SDS011;69977;49.414;11.010;2023-07-08T07:13:25;6.30;;;4.13;;
54460;SDS011;69977;49.414;11.010;2023-07-08T07:15:51;4.23;;;3.83;;
54460;SDS011;69977;49.414;11.010;2023-07-08T07:18:18;4.00;;;3.70;;
54460;SDS011;69977;49.414;11.010;2023-07-08T07:20:52;4.80;;;4.20;;
54460;SDS011;69977;49.414;11.010;2023-07-08T07:23:19;4.53;;;4.13;;
54460;SDS011;69977;49.414;11.010;2023-07-08T07:25:45;4.30;;;3.90;;
54460;SDS011;69977;49.414;11.010;2023-07-08T07:28:15;7.70;;;4.30;;
54460;SDS011;69977;49.414;11.010;2023-07-08T07:30:45;4.40;;;4.00;;
54460;SDS011;69977;49.414;11.010;2023-07-08T07:33:12;6.17;;;4.20;;
54460;SDS011;69977;49.414;11.010;2023-07-08T07:35:45;4.00;;;3.67;;
54460;SDS011;69977;49.414;11.010;2023-07-08T07:38:11;4.17;;;3.77;;
54460;SDS011;69977;49.414;11.010;2023-07-08T07:40:39;5.45;;;3.92;;
54460;SDS011;69977;49.414;11.010;2023-07-08T07:43:05;4.27;;;3.93;;
54460;SDS011;69977;49.414;11.010;2023-07-08T07:45:31;3.80;;;3.50;;
54460;SDS011;69977;49.414;11.010;2023-07-08T07:47:57;5.43;;;4.32;;
54460;SDS011;69977;49.414;11.010;2023-07-08T07:50:24;3.90;;;3.50;;
54460;SDS011;69977;49.414;11.010;2023-07-08T07:52:50;4.05;;;3.65;;
54460;SDS011;69977;49.414;11.010;2023-07-08T07:55:16;7.13;;;3.83;;
54460;SDS011;69977;49.414;11.010;2023-07-08T07:57:42;3.72;;;3.42;;
54460;SDS011;69977;49.414;11.010;2023-07-08T08:00:11;4.82;;;3.60;;
54460;SDS011;69977;49.414;11.010;2023-07-08T08:02:39;5.00;;;3.78;;
54460;SDS011;69977;49.414;11.010;2023-07-08T08:05:06;3.95;;;3.55;;
54460;SDS011;69977;49.414;11.010;2023-07-08T08:07:32;4.07;;;3.33;;
54460;SDS011;69977;49.414;11.010;2023-07-08T08:09:58;3.00;;;2.80;;
54460;SDS011;69977;49.414;11.010;2023-07-08T08:12:24;4.75;;;3.33;;
54460;SDS011;69977;49.414;11.010;2023-07-08T08:14:51;3.88;;;3.58;;
54460;SDS011;69977;49.414;11.010;2023-07-08T08:17:17;3.67;;;3.35;;
54460;SDS011;69977;49.414;11.010;2023-07-08T08:19:43;5.00;;;3.28;;
54460;SDS011;69977;49.414;11.010;2023-07-08T08:22:09;3.63;;;3.33;;
54460;SDS011;69977;49.414;11.010;2023-07-08T08:24:36;5.45;;;3.40;;
54460;SDS011;69977;49.414;11.010;2023-07-08T08:27:02;3.83;;;3.50;;
54460;SDS011;69977;49.414;11.010;2023-07-08T08:29:28;4.22;;;3.83;;
54460;SDS011;69977;49.414;11.010;2023-07-08T08:31:54;3.95;;;3.45;;
54460;SDS011;69977;49.414;11.010;2023-07-08T08:34:21;3.38;;;3.10;;
54460;SDS011;69977;49.414;11.010;2023-07-08T08:36:47;4.20;;;3.17;;
54460;SDS011;69977;49.414;11.010;2023-07-08T08:39:13;3.92;;;3.50;;
54460;SDS011;69977;49.414;11.010;2023-07-08T08:41:40;3.83;;;3.42;;
54460;SDS011;69977;49.414;11.010;2023-07-08T08:44:08;4.22;;;3.33;;
54460;SDS011;69977;49.414;11.010;2023-07-08T08:46:38;3.67;;;3.33;;
54460;SDS011;69977;49.414;11.010;2023-07-08T08:51:39;3.83;;;3.22;;
54460;SDS011;69977;49.414;11.010;2023-07-08T08:54:07;3.83;;;3.50;;
54460;SDS011;69977;49.414;11.010;2023-07-08T08:56:59;3.67;;;3.08;;
54460;SDS011;69977;49.414;11.010;2023-07-08T08:59:27;3.40;;;3.10;;
54460;SDS011;69977;49.414;11.010;2023-07-08T09:01:57;6.38;;;3.55;;
54460;SDS011;69977;49.414;11.010;2023-07-08T09:04:28;3.55;;;3.25;;
54460;SDS011;69977;49.414;11.010;2023-07-08T09:07:06;3.78;;;3.47;;
54460;SDS011;69977;49.414;11.010;2023-07-08T09:09:38;4.47;;;3.60;;
54460;SDS011;69977;49.414;11.010;2023-07-08T09:12:10;3.30;;;3.00;;
54460;SDS011;69977;49.414;11.010;2023-07-08T09:14:38;3.65;;;3.35;;
54460;SDS011;69977;49.414;11.010;2023-07-08T09:17:24;6.18;;;3.50;;
54460;SDS011;69977;49.414;11.010;2023-07-08T09:22:25;6.50;;;3.17;;
54460;SDS011;69977;49.414;11.010;2023-07-08T09:27:30;3.70;;;3.35;;
54460;SDS011;69977;49.414;11.010;2023-07-08T09:29:56;3.70;;;3.40;;
54460;SDS011;69977;49.414;11.010;2023-07-08T09:32:24;5.03;;;3.35;;
54460;SDS011;69977;49.414;11.010;2023-07-08T09:34:51;3.90;;;3.50;;
54460;SDS011;69977;49.414;11.010;2023-07-08T09:37:27;3.67;;;3.38;;
54460;SDS011;69977;49.414;11.010;2023-07-08T09:39:55;3.45;;;3.10;;
54460;SDS011;69977;49.414;11.010;2023-07-08T09:42:22;4.32;;;3.58;;
54460;SDS011;69977;49.414;11.010;2023-07-08T09:44:53;3.70;;;3.40;;
54460;SDS011;69977;49.414;11.010;2023-07-08T09:47:23;3.20;;;3.00;;
54460;SDS011;69977;49.414;11.010;2023-07-08T09:49:50;4.90;;;3.17;;
54460;SDS011;69977;49.414;11.010;2023-07-08T09:52:18;4.47;;;3.13;;
54460;SDS011;69977;49.414;11.010;2023-07-08T09:54:44;3.40;;;3.10;;
54460;SDS011;69977;49.414;11.010;2023-07-08T09:57:18;3.38;;;3.08;;
54460;SDS011;69977;49.414;11.010;2023-07-08T09:59:48;5.78;;;3.50;;
54460;SDS011;69977;49.414;11.010;2023-07-08T10:02:21;3.70;;;3.40;;
54460;SDS011;69977;49.414;11.010;2023-07-08T10:04:57;3.40;;;3.10;;
54460;SDS011;69977;49.414;11.010;2023-07-08T10:07:25;3.70;;;3.40;;
54460;SDS011;69977;49.414;11.010;2023-07-08T10:09:53;3.63;;;3.33;;
54460;SDS011;69977;49.414;11.010;2023-07-08T10:12:21;5.97;;;3.92;;
54460;SDS011;69977;49.414;11.010;2023-07-08T10:14:49;3.83;;;3.22;;
54460;SDS011;69977;49.414;11.010;2023-07-08T10:17:17;3.60;;;3.30;;
54460;SDS011;69977;49.414;11.010;2023-07-08T10:19:44;3.30;;;3.10;;
54460;SDS011;69977;49.414;11.010;2023-07-08T10:22:30;4.40;;;4.00;;
54460;SDS011;69977;49.414;11.010;2023-07-08T10:25:03;5.47;;;4.60;;
54460;SDS011;69977;49.414;11.010;2023-07-08T10:30:08;6.57;;;6.03;;
54460;SDS011;69977;49.414;11.010;2023-07-08T10:35:19;3.45;;;3.20;;
54460;SDS011;69977;49.414;11.010;2023-07-08T10:48:24;4.05;;;3.72;;
54460;SDS011;69977;49.414;11.010;2023-07-08T10:50:58;6.00;;;3.90;;
54460;SDS011;69977;49.414;11.010;2023-07-08T10:56:14;3.63;;;3.28;;
54460;SDS011;69977;49.414;11.010;2023-07-08T10:59:28;3.78;;;3.17;;
54460;SDS011;69977;49.414;11.010;2023-07-08T11:06:25;3.63;;;3.33;;
54460;SDS011;69977;49.414;11.010;2023-07-08T11:13:46;4.55;;;3.70;;
54460;SDS011;69977;49.414;11.010;2023-07-08T11:18:42;3.80;;;3.42;;
54460;SDS011;69977;49.414;11.010;2023-07-08T11:21:16;4.80;;;4.40;;
54460;SDS011;69977;49.414;11.010;2023-07-08T11:23:46;5.13;;;3.95;;
54460;SDS011;69977;49.414;11.010;2023-07-08T11:28:45;5.68;;;3.70;;
54460;SDS011;69977;49.414;11.010;2023-07-08T11:31:12;5.40;;;3.88;;
54460;SDS011;69977;49.414;11.010;2023-07-08T11:33:38;3.35;;;3.15;;
54460;SDS011;69977;49.414;11.010;2023-07-08T11:36:06;5.35;;;3.97;;
54460;SDS011;69977;49.414;11.010;2023-07-08T11:38:32;4.88;;;3.60;;
54460;SDS011;69977;49.414;11.010;2023-07-08T11:41:14;3.97;;;3.67;;
54460;SDS011;69977;49.414;11.010;2023-07-08T11:46:07;4.00;;;3.38;;
54460;SDS011;69977;49.414;11.010;2023-07-08T11:48:43;3.65;;;3.45;;
54460;SDS011;69977;49.414;11.010;2023-07-08T11:51:15;4.72;;;3.78;;
54460;SDS011;69977;49.414;11.010;2023-07-08T11:53:47;5.78;;;3.80;;
54460;SDS011;69977;49.414;11.010;2023-07-08T12:03:53;3.50;;;3.20;;
54460;SDS011;69977;49.414;11.010;2023-07-08T12:08:52;3.95;;;3.50;;
54460;SDS011;69977;49.414;11.010;2023-07-08T12:11:20;3.65;;;3.05;;
54460;SDS011;69977;49.414;11.010;2023-07-08T12:13:50;3.95;;;3.65;;
54460;SDS011;69977;49.414;11.010;2023-07-08T12:16:16;3.22;;;3.03;;
54460;SDS011;69977;49.414;11.010;2023-07-08T12:18:42;4.00;;;3.40;;
54460;SDS011;69977;49.414;11.010;2023-07-08T12:21:11;14.20;;;12.85;;
54460;SDS011;69977;49.414;11.010;2023-07-08T12:23:43;5.20;;;4.80;;
54460;SDS011;69977;49.414;11.010;2023-07-08T12:26:09;3.28;;;3.08;;
54460;SDS011;69977;49.414;11.010;2023-07-08T12:28:39;4.20;;;3.55;;
54460;SDS011;69977;49.414;11.010;2023-07-08T12:31:19;4.78;;;3.22;;
54460;SDS011;69977;49.414;11.010;2023-07-08T12:33:46;4.88;;;4.47;;
54460;SDS011;69977;49.414;11.010;2023-07-08T12:36:16;5.82;;;5.32;;
54460;SDS011;69977;49.414;11.010;2023-07-08T12:38:43;7.15;;;4.45;;
54460;SDS011;69977;49.414;11.010;2023-07-08T12:41:12;5.90;;;3.92;;
54460;SDS011;69977;49.414;11.010;2023-07-08T12:43:38;35.58;;;5.63;;
54460;SDS011;69977;49.414;11.010;2023-07-08T12:46:04;6.15;;;4.60;;
54460;SDS011;69977;49.414;11.010;2023-07-08T12:48:35;4.20;;;3.30;;
54460;SDS011;69977;49.414;11.010;2023-07-08T12:51:05;3.90;;;3.60;;
54460;SDS011;69977;49.414;11.010;2023-07-08T12:53:31;4.10;;;3.80;;
54460;SDS011;69977;49.414;11.010;2023-07-08T12:55:59;3.63;;;3.33;;
54460;SDS011;69977;49.414;11.010;2023-07-08T12:58:27;5.07;;;4.68;;
54460;SDS011;69977;49.414;11.010;2023-07-08T13:00:54;4.65;;;4.07;;
54460;SDS011;69977;49.414;11.010;2023-07-08T13:03:22;3.85;;;3.47;;
54460;SDS011;69977;49.414;11.010;2023-07-08T13:05:49;3.40;;;3.10;;
54460;SDS011;69977;49.414;11.010;2023-07-08T13:08:18;4.72;;;3.67;;
54460;SDS011;69977;49.414;11.010;2023-07-08T13:10:46;3.42;;;3.13;;
54460;SDS011;69977;49.414;11.010;2023-07-08T13:13:18;5.47;;;4.97;;
54460;SDS011;69977;49.414;11.010;2023-07-08T13:15:45;4.28;;;3.97;;
54460;SDS011;69977;49.414;11.010;2023-07-08T13:20:41;4.00;;;3.67;;
54460;SDS011;69977;49.414;11.010;2023-07-08T13:23:08;3.88;;;3.58;;
54460;SDS011;69977;49.414;11.010;2023-07-08T13:25:36;7.53;;;6.82;;
54460;SDS011;69977;49.414;11.010;2023-07-08T13:28:20;5.03;;;4.53;;
54460;SDS011;69977;49.414;11.010;2023-07-08T13:33:18;3.63;;;3.33;;
54460;SDS011;69977;49.414;11.010;2023-07-08T13:35:44;5.15;;;3.67;;
54460;SDS011;69977;49.414;11.010;2023-07-08T13:38:17;3.72;;;3.42;;
54460;SDS011;69977;49.414;11.010;2023-07-08T13:40:50;3.75;;;3.40;;
54460;SDS011;69977;49.414;11.010;2023-07-08T13:43:22;3.95;;;3.65;;
54460;SDS011;69977;49.414;11.010;2023-07-08T13:45:49;4.93;;;3.50;;
54460;SDS011;69977;49.414;11.010;2023-07-08T13:51:20;4.05;;;3.75;;
54460;SDS011;69977;49.414;11.010;2023-07-08T13:53:53;3.45;;;3.15;;
54460;SDS011;69977;49.414;11.010;2023-07-08T13:56:29;4.05;;;3.63;;
54460;SDS011;69977;49.414;11.010;2023-07-08T13:59:09;19.42;;;4.80;;
54460;SDS011;69977;49.414;11.010;2023-07-08T14:01:37;6.47;;;3.90;;
54460;SDS011;69977;49.414;11.010;2023-07-08T14:04:03;5.53;;;3.75;;
54460;SDS011;69977;49.414;11.010;2023-07-08T14:06:31;7.00;;;3.90;;
54460;SDS011;69977;49.414;11.010;2023-07-08T14:08:58;5.60;;;5.03;;
54460;SDS011;69977;49.414;11.010;2023-07-08T14:11:25;4.20;;;3.88;;
54460;SDS011;69977;49.414;11.010;2023-07-08T14:13:51;4.32;;;3.95;;
54460;SDS011;69977;49.414;11.010;2023-07-08T14:18:45;3.88;;;3.45;;
54460;SDS011;69977;49.414;11.010;2023-07-08T14:21:11;6.32;;;3.80;;
54460;SDS011;69977;49.414;11.010;2023-07-08T14:23:37;3.67;;;3.38;;
54460;SDS011;69977;49.414;11.010;2023-07-08T14:26:07;4.60;;;3.58;;
54460;SDS011;69977;49.414;11.010;2023-07-08T14:28:33;5.18;;;3.53;;
54460;SDS011;69977;49.414;11.010;2023-07-08T14:30:59;13.02;;;4.38;;
54460;SDS011;69977;49.414;11.010;2023-07-08T14:33:25;9.85;;;4.15;;
54460;SDS011;69977;49.414;11.010;2023-07-08T14:35:51;20.77;;;5.20;;
54460;SDS011;69977;49.414;11.010;2023-07-08T14:38:18;4.72;;;3.72;;
54460;SDS011;69977;49.414;11.010;2023-07-08T14:40:44;5.38;;;3.45;;
54460;SDS011;69977;49.414;11.010;2023-07-08T14:43:15;5.05;;;3.90;;
54460;SDS011;69977;49.414;11.010;2023-07-08T14:45:44;4.70;;;4.40;;
54460;SDS011;69977;49.414;11.010;2023-07-08T14:48:12;3.85;;;3.55;;
54460;SDS011;69977;49.414;11.010;2023-07-08T14:50:38;3.50;;;3.28;;
54460;SDS011;69977;49.414;11.010;2023-07-08T14:53:05;4.03;;;3.72;;
54460;SDS011;69977;49.414;11.010;2023-07-08T14:55:31;4.40;;;3.67;;
54460;SDS011;69977;49.414;11.010;2023-07-08T14:57:58;6.30;;;3.28;;
54460;SDS011;69977;49.414;11.010;2023-07-08T15:00:24;6.28;;;3.83;;
54460;SDS011;69977;49.414;11.010;2023-07-08T15:02:50;4.38;;;3.97;;
54460;SDS011;69977;49.414;11.010;2023-07-08T15:05:21;3.97;;;3.67;;
54460;SDS011;69977;49.414;11.010;2023-07-08T15:07:50;5.53;;;3.67;;
54460;SDS011;69977;49.414;11.010;2023-07-08T15:10:17;3.83;;;3.47;;
54460;SDS011;69977;49.414;11.010;2023-07-08T15:12:45;11.60;;;4.50;;
54460;SDS011;69977;49.414;11.010;2023-07-08T15:15:18;4.57;;;3.53;;
54460;SDS011;69977;49.414;11.010;2023-07-08T15:17:48;5.30;;;3.50;;
54460;SDS011;69977;49.414;11.010;2023-07-08T15:20:14;4.38;;;3.97;;
54460;SDS011;69977;49.414;11.010;2023-07-08T15:22:44;6.60;;;3.58;;
54460;SDS011;69977;49.414;11.010;2023-07-08T15:25:11;4.15;;;3.85;;
54460;SDS011;69977;49.414;11.010;2023-07-08T15:27:38;4.43;;;3.38;;
54460;SDS011;69977;49.414;11.010;2023-07-08T15:30:05;4.40;;;4.00;;
54460;SDS011;69977;49.414;11.010;2023-07-08T15:32:36;3.85;;;3.55;;
54460;SDS011;69977;49.414;11.010;2023-07-08T15:35:04;5.47;;;3.60;;
54460;SDS011;69977;49.414;11.010;2023-07-08T15:37:30;3.97;;;3.67;;
54460;SDS011;69977;49.414;11.010;2023-07-08T15:39:56;4.63;;;3.88;;
54460;SDS011;69977;49.414;11.010;2023-07-08T15:42:23;3.92;;;3.55;;
54460;SDS011;69977;49.414;11.010;2023-07-08T15:44:49;5.97;;;4.05;;
54460;SDS011;69977;49.414;11.010;2023-07-08T15:47:17;3.90;;;3.60;;
54460;SDS011;69977;49.414;11.010;2023-07-08T15:49:43;4.43;;;3.85;;